Time;durP1;ratioP1;P1;durP2;ratioP2;P2;SDS_P1;SDS_P2;PMS_P1;PMS_P2;Temp;Humidity;BMP_temperature;BMP_pressure;BME280_temperature;BME280_humidity;BME280_pressure;Samples;Min_cycle;Max_cycle;Signal;HPM_P1;HPM_P2
2023/01/08 00:00:57;;;;;;;9.48;4.72;;;;;;;8.99;100.00;100354.97;4990724;28;20506;-86
2023/01/08 00:03:23;;;;;;;8.02;4.43;;;;;;;8.97;100.00;100345.53;4979073;28;20049;-86
2023/01/08 00:05:48;;;;;;;7.43;4.40;;;;;;;8.96;100.00;100349.00;5011395;28;20022;-85
2023/01/08 00:08:14;;;;;;;7.93;4.70;;;;;;;8.93;100.00;100354.25;5000631;28;20034;-85
2023/01/08 00:10:39;;;;;;;9.07;4.90;;;;;;;8.86;100.00;100350.97;4983483;28;20064;-85
2023/01/08 00:13:06;;;;;;;10.45;4.60;;;;;;;8.84;100.00;100349.31;5000780;28;20031;-86
2023/01/08 00:15:34;;;;;;;10.95;4.78;;;;;;;8.90;100.00;100357.75;4991763;28;20377;-86
2023/01/08 00:18:00;;;;;;;10.50;4.78;;;;;;;8.94;100.00;100361.13;4984797;28;20060;-85
2023/01/08 00:20:26;;;;;;;11.32;4.90;;;;;;;8.98;100.00;100354.97;5011320;28;20598;-86
2023/01/08 00:22:52;;;;;;;7.97;4.53;;;;;;;9.03;100.00;100353.97;4992413;28;20033;-86
2023/01/08 00:25:18;;;;;;;7.95;4.50;;;;;;;9.07;100.00;100347.00;4975844;28;20113;-86
2023/01/08 00:27:44;;;;;;;12.07;5.47;;;;;;;9.06;100.00;100351.31;4980174;28;20521;-86
2023/01/08 00:30:10;;;;;;;11.40;4.72;;;;;;;8.95;100.00;100326.63;4995324;28;20045;-86
2023/01/08 00:32:36;;;;;;;9.63;4.63;;;;;;;8.95;100.00;100336.97;4991317;28;20046;-86
2023/01/08 00:35:01;;;;;;;11.43;4.68;;;;;;;8.94;100.00;100340.47;4998376;28;20082;-86
2023/01/08 00:37:27;;;;;;;8.27;4.68;;;;;;;8.88;100.00;100331.09;4997047;28;20031;-87
2023/01/08 00:39:53;;;;;;;12.10;4.70;;;;;;;8.88;100.00;100325.06;5006279;28;20451;-87
2023/01/08 00:42:18;;;;;;;9.27;4.57;;;;;;;8.86;100.00;100316.53;4989981;28;20042;-87
2023/01/08 00:44:43;;;;;;;8.43;4.30;;;;;;;8.82;100.00;100313.16;5005336;28;20100;-86
2023/01/08 00:47:09;;;;;;;11.23;5.05;;;;;;;8.81;100.00;100308.88;5011669;28;20026;-87
2023/01/08 00:49:34;;;;;;;9.45;4.70;;;;;;;8.79;100.00;100309.81;4997266;28;20028;-86
2023/01/08 00:51:59;;;;;;;13.18;4.68;;;;;;;8.81;100.00;100315.78;5006199;28;20446;-87
2023/01/08 00:54:24;;;;;;;10.57;4.93;;;;;;;8.80;100.00;100306.34;4995322;28;20026;-87
2023/01/08 00:56:50;;;;;;;9.23;4.93;;;;;;;8.81;100.00;100301.13;4994025;28;20037;-87
2023/01/08 00:59:15;;;;;;;9.65;4.43;;;;;;;8.79;100.00;100300.34;4998221;28;20031;-87
2023/01/08 01:01:41;;;;;;;10.55;4.57;;;;;;;8.81;100.00;100308.03;4993438;28;20038;-86
2023/01/08 01:04:06;;;;;;;9.13;4.35;;;;;;;8.80;100.00;100299.44;4974315;28;20046;-87
2023/01/08 01:06:32;;;;;;;9.63;4.82;;;;;;;8.79;100.00;100299.47;4978446;28;20045;-87
2023/01/08 01:08:57;;;;;;;9.57;4.53;;;;;;;8.81;100.00;100298.53;4974098;28;20026;-92
2023/01/08 01:11:25;;;;;;;6.50;4.60;;;;;;;8.83;100.00;100298.50;4972116;28;20034;-92
2023/01/08 01:13:51;;;;;;;11.57;4.38;;;;;;;8.82;100.00;100291.63;4966109;28;20038;-92
2023/01/08 01:16:17;;;;;;;8.98;4.88;;;;;;;8.80;100.00;100288.25;4976638;28;20391;-92
2023/01/08 01:18:43;;;;;;;9.57;4.68;;;;;;;8.78;100.00;100283.13;4995894;28;20026;-92
2023/01/08 01:21:17;;;;;;;9.77;4.57;;;;;;;8.82;100.00;100279.56;4984929;28;20039;-91
2023/01/08 01:23:42;;;;;;;;;;;;;;;8.88;100.00;100284.56;4982382;28;20042;-91
2023/01/08 01:26:19;;;;;;;8.90;4.27;;;;;;;8.89;100.00;100280.25;4989011;28;19914;-91
2023/01/08 01:28:49;;;;;;;8.80;4.28;;;;;;;8.86;100.00;100281.19;4974811;28;20029;-92
2023/01/08 01:31:15;;;;;;;9.93;4.50;;;;;;;8.86;100.00;100277.75;4973210;28;20530;-91
2023/01/08 01:33:41;;;;;;;6.75;4.00;;;;;;;8.83;100.00;100277.81;4991266;28;20030;-92
2023/01/08 01:36:08;;;;;;;9.02;4.45;;;;;;;8.84;100.00;100264.88;4990423;28;20030;-92
2023/01/08 01:38:33;;;;;;;11.43;4.80;;;;;;;8.81;100.00;100259.78;4984756;28;20035;-93
2023/01/08 01:40:58;;;;;;;10.15;4.60;;;;;;;8.82;100.00;100265.78;4972126;28;20030;-92
2023/01/08 01:43:35;;;;;;;9.85;4.38;;;;;;;8.82;100.00;100271.81;4975662;28;20031;-93
2023/01/08 01:46:02;;;;;;;8.55;4.50;;;;;;;8.83;100.00;100275.25;4975386;28;20023;-91
2023/01/08 01:48:27;;;;;;;10.18;4.40;;;;;;;8.87;100.00;100277.69;4974834;28;20039;-92
2023/01/08 01:50:53;;;;;;;10.50;4.72;;;;;;;8.89;100.00;100275.94;4979665;28;20027;-92
2023/01/08 01:53:32;;;;;;;10.70;4.53;;;;;;;8.93;100.00;100280.16;4981217;28;20428;-91
2023/01/08 01:56:00;;;;;;;9.45;4.45;;;;;;;8.95;100.00;100286.09;4978142;28;20490;-92
2023/01/08 01:58:28;;;;;;;11.00;4.72;;;;;;;8.99;100.00;100281.72;4974850;28;20114;-91
2023/01/08 02:00:57;;;;;;;9.48;4.50;;;;;;;9.01;100.00;100290.25;4973899;28;20570;-92
2023/01/08 02:03:25;;;;;;;10.20;4.70;;;;;;;9.01;100.00;100288.53;4972813;28;20492;-92
2023/01/08 02:06:02;;;;;;;11.05;4.78;;;;;;;8.96;100.00;100285.22;4974617;28;20069;-92
2023/01/08 02:08:56;;;;;;;8.63;4.38;;;;;;;8.98;100.00;100295.53;4971906;28;20031;-87
2023/01/08 02:11:27;;;;;;;7.28;3.58;;;;;;;8.85;100.00;100292.41;4973820;28;20025;-86
2023/01/08 02:14:30;;;;;;;9.02;3.67;;;;;;;8.83;100.00;100286.44;4974588;28;20484;-87
2023/01/08 02:17:01;;;;;;;7.20;2.83;;;;;;;8.76;100.00;100284.03;4963619;28;20115;-87
2023/01/08 02:19:41;;;;;;;6.65;2.40;;;;;;;8.75;100.00;100277.16;4988328;28;20034;-86
2023/01/08 02:22:27;;;;;;;8.35;2.70;;;;;;;8.64;100.00;100275.72;4989283;28;20034;-87
2023/01/08 02:25:02;;;;;;;5.93;2.35;;;;;;;8.59;100.00;100276.72;4982751;28;20038;-87
2023/01/08 02:27:29;;;;;;;;;;;;;;;8.55;100.00;100269.91;4974479;28;20034;-87
2023/01/08 02:29:55;;;;;;;7.53;1.90;;;;;;;8.42;100.00;100269.38;4973494;28;20350;-87
2023/01/08 02:32:32;;;;;;;6.25;1.70;;;;;;;8.35;100.00;100261.81;4988283;28;20065;-87
2023/01/08 02:34:58;;;;;;;4.25;1.80;;;;;;;8.28;100.00;100266.25;4981144;28;20038;-87
2023/01/08 02:37:24;;;;;;;4.72;1.45;;;;;;;8.23;100.00;100270.66;4979109;28;20100;-87
2023/01/08 02:39:58;;;;;;;6.05;1.70;;;;;;;8.19;100.00;100258.69;4983634;28;20101;-87
2023/01/08 02:42:33;;;;;;;5.32;1.35;;;;;;;8.15;100.00;100251.91;4971607;28;20031;-87
2023/01/08 02:45:15;;;;;;;6.35;1.30;;;;;;;8.09;100.00;100249.47;4974921;28;20018;-87
2023/01/08 02:47:58;;;;;;;7.00;1.42;;;;;;;8.06;100.00;100259.88;4972054;28;20489;-87
2023/01/08 02:50:30;;;;;;;3.35;1.27;;;;;;;8.06;100.00;100260.72;4975884;28;20572;-87
2023/01/08 02:53:10;;;;;;;3.85;1.20;;;;;;;8.05;100.00;100263.34;4972330;28;20405;-86
2023/01/08 02:55:39;;;;;;;5.90;1.40;;;;;;;7.99;100.00;100263.47;4972563;28;20026;-87
2023/01/08 02:58:05;;;;;;;6.43;1.45;;;;;;;7.97;100.00;100258.38;4978500;28;20042;-86
2023/01/08 03:00:32;;;;;;;3.97;1.30;;;;;;;7.92;100.00;100261.03;4974842;28;20027;-87
2023/01/08 03:03:09;;;;;;;3.78;1.30;;;;;;;7.85;100.00;100266.34;4964712;28;20031;-87
2023/01/08 03:05:39;;;;;;;6.15;1.20;;;;;;;7.77;100.00;100266.53;4991023;28;20034;-88
2023/01/08 03:08:05;;;;;;;3.05;1.20;;;;;;;7.74;100.00;100265.75;5002348;28;20072;-88
2023/01/08 03:10:31;;;;;;;6.53;1.15;;;;;;;7.67;100.00;100272.75;5008902;28;20045;-88
2023/01/08 03:13:10;;;;;;;6.38;1.00;;;;;;;7.60;100.00;100263.47;4992229;28;20027;-88
2023/01/08 03:15:45;;;;;;;5.38;1.30;;;;;;;7.54;100.00;100264.44;5000508;28;20061;-88
2023/01/08 03:18:17;;;;;;;3.80;1.02;;;;;;;7.47;100.00;100249.13;4997880;28;20253;-88
2023/01/08 03:20:44;;;;;;;3.35;1.00;;;;;;;7.44;100.00;100244.88;4975655;28;20030;-88
2023/01/08 03:23:13;;;;;;;5.10;1.00;;;;;;;7.43;100.00;100247.50;4992356;28;20539;-88
2023/01/08 03:25:42;;;;;;;4.80;1.08;;;;;;;7.39;100.00;100251.00;4992612;28;20030;-88
2023/01/08 03:28:14;;;;;;;5.38;1.00;;;;;;;7.37;100.00;100248.44;4982029;28;20030;-88
2023/01/08 03:30:41;;;;;;;4.30;1.00;;;;;;;7.35;100.00;100259.69;4990788;28;20037;-88
2023/01/08 03:33:10;;;;;;;3.63;1.02;;;;;;;7.31;100.00;100252.88;4992221;28;20105;-88
2023/01/08 03:35:39;;;;;;;7.07;1.30;;;;;;;7.24;100.00;100248.72;4998698;28;20034;-88
2023/01/08 03:38:14;;;;;;;8.50;1.13;;;;;;;7.22;100.00;100242.78;4999013;28;20076;-88
2023/01/08 03:40:44;;;;;;;6.10;1.50;;;;;;;7.23;100.00;100247.06;4976780;28;20057;-88
2023/01/08 03:43:09;;;;;;;7.57;1.30;;;;;;;7.26;100.00;100247.81;4999208;28;20033;-88
2023/01/08 03:45:37;;;;;;;7.30;1.05;;;;;;;7.26;100.00;100249.56;4991791;28;20026;-88
2023/01/08 03:48:04;;;;;;;4.75;1.27;;;;;;;7.25;100.00;100240.97;4992469;28;20018;-89
2023/01/08 03:50:31;;;;;;;6.38;1.20;;;;;;;7.26;100.00;100244.41;5005192;28;20533;-88
2023/01/08 03:52:56;;;;;;;6.70;1.10;;;;;;;7.25;100.00;100253.00;4991847;28;20410;-88
2023/01/08 03:55:21;;;;;;;5.97;1.13;;;;;;;7.26;100.00;100234.09;4991900;28;20498;-88
2023/01/08 03:57:47;;;;;;;3.20;1.17;;;;;;;7.24;100.00;100231.53;4996143;28;20130;-88
2023/01/08 04:00:13;;;;;;;4.60;1.27;;;;;;;7.28;100.00;100242.66;4986593;28;20113;-88
2023/01/08 04:02:40;;;;;;;5.97;1.20;;;;;;;7.29;100.00;100239.19;4993843;28;20128;-88
2023/01/08 04:05:07;;;;;;;6.65;1.20;;;;;;;7.29;100.00;100224.56;4974142;28;20061;-88
2023/01/08 04:07:32;;;;;;;5.35;1.17;;;;;;;7.30;100.00;100218.50;4991655;28;20534;-88
2023/01/08 04:09:57;;;;;;;7.40;1.30;;;;;;;7.31;100.00;100216.78;4991780;28;20149;-89
2023/01/08 04:12:23;;;;;;;6.32;1.40;;;;;;;7.36;100.00;100215.00;5002705;28;20109;-88
2023/01/08 04:14:48;;;;;;;6.15;1.17;;;;;;;7.37;100.00;100227.81;4996107;28;20086;-89
2023/01/08 04:17:14;;;;;;;6.40;1.13;;;;;;;7.40;100.00;100224.34;4992945;28;20030;-88
2023/01/08 04:19:39;;;;;;;5.72;1.10;;;;;;;7.43;100.00;100225.16;4991984;28;20026;-88
2023/01/08 04:22:05;;;;;;;5.05;1.33;;;;;;;7.39;100.00;100205.44;4992222;28;20022;-88
2023/01/08 04:24:30;;;;;;;5.22;1.42;;;;;;;7.46;100.00;100206.16;4996846;28;20117;-88
2023/01/08 04:26:56;;;;;;;5.43;1.40;;;;;;;7.42;100.00;100200.25;5006200;28;20054;-88
2023/01/08 04:29:21;;;;;;;5.90;1.48;;;;;;;7.42;100.00;100201.97;5000320;28;20113;-88
2023/01/08 04:31:46;;;;;;;3.10;1.05;;;;;;;7.40;100.00;100209.72;4981134;28;20120;-88
2023/01/08 04:34:12;;;;;;;5.40;1.20;;;;;;;7.38;100.00;100214.06;4994382;28;20450;-88
2023/01/08 04:36:37;;;;;;;7.03;1.50;;;;;;;7.34;100.00;100209.84;5001784;28;20026;-89
2023/01/08 04:39:03;;;;;;;8.25;1.70;;;;;;;7.36;100.00;100205.53;4990116;28;20014;-88
2023/01/08 04:41:29;;;;;;;5.57;1.38;;;;;;;7.34;100.00;100199.53;4993624;28;20490;-88
2023/01/08 04:43:54;;;;;;;4.95;1.70;;;;;;;7.35;100.00;100195.25;4994462;28;20101;-88
2023/01/08 04:46:19;;;;;;;5.57;1.90;;;;;;;7.36;100.00;100194.38;4993472;28;20032;-88
2023/01/08 04:48:45;;;;;;;3.70;1.73;;;;;;;7.38;100.00;100195.16;4999627;28;20450;-88
2023/01/08 04:51:10;;;;;;;7.68;2.03;;;;;;;7.35;100.00;100187.50;4997489;28;20038;-88
2023/01/08 04:53:38;;;;;;;9.02;2.58;;;;;;;7.36;100.00;100192.63;4994633;28;20018;-88
2023/01/08 04:56:08;;;;;;;7.45;2.22;;;;;;;7.35;100.00;100184.94;4965138;28;20038;-88
2023/01/08 04:58:37;;;;;;;6.80;2.40;;;;;;;7.36;100.00;100179.75;4981519;28;20019;-88
2023/01/08 05:01:15;;;;;;;4.47;2.20;;;;;;;7.38;100.00;100193.44;5007021;28;20088;-88
2023/01/08 05:03:40;;;;;;;8.13;2.22;;;;;;;7.39;100.00;100197.72;4986604;28;20147;-88
2023/01/08 05:06:06;;;;;;;5.05;2.13;;;;;;;7.42;100.00;100196.81;4990292;28;20120;-88
2023/01/08 05:08:32;;;;;;;5.55;2.00;;;;;;;7.39;100.00;100191.69;4995100;28;20042;-87
2023/01/08 05:11:00;;;;;;;4.38;1.83;;;;;;;7.40;100.00;100186.53;4995108;28;20106;-88
2023/01/08 05:13:26;;;;;;;4.43;1.80;;;;;;;7.36;100.00;100177.16;5003406;28;20033;-88
2023/01/08 05:15:52;;;;;;;5.28;1.70;;;;;;;7.31;100.00;100171.25;5011731;28;20026;-88
2023/01/08 05:18:17;;;;;;;5.68;2.08;;;;;;;7.40;100.00;100191.69;4991648;28;20038;-88
2023/01/08 05:20:42;;;;;;;3.88;1.50;;;;;;;7.40;100.00;100199.41;4994521;28;20030;-88
2023/01/08 05:23:08;;;;;;;6.07;1.40;;;;;;;7.35;100.00;100193.50;4999263;28;20041;-88
2023/01/08 05:25:34;;;;;;;5.22;1.70;;;;;;;7.39;100.00;100189.13;4995244;28;20134;-88
2023/01/08 05:27:59;;;;;;;4.05;1.30;;;;;;;7.36;100.00;100186.63;4993401;28;20033;-88
2023/01/08 05:30:25;;;;;;;4.50;1.40;;;;;;;7.35;100.00;100188.34;4993717;28;20026;-87
2023/01/08 05:32:50;;;;;;;4.68;1.38;;;;;;;7.36;100.00;100192.63;4996635;28;20018;-88
2023/01/08 05:35:16;;;;;;;4.53;1.35;;;;;;;7.36;100.00;100194.38;4998533;28;20026;-88
2023/01/08 05:37:41;;;;;;;3.13;1.30;;;;;;;7.36;100.00;100186.63;4991561;28;20034;-89
2023/01/08 05:40:07;;;;;;;5.20;1.60;;;;;;;7.35;100.00;100179.78;4992361;28;20031;-88
2023/01/08 05:42:34;;;;;;;2.97;1.50;;;;;;;7.37;100.00;100172.88;4993712;28;20387;-87
2023/01/08 05:45:00;;;;;;;6.88;2.22;;;;;;;7.33;100.00;100155.75;4994092;28;20041;-87
2023/01/08 05:47:29;;;;;;;6.05;1.98;;;;;;;7.34;100.00;100157.44;4976226;28;20045;-88
2023/01/08 05:49:54;;;;;;;5.88;2.00;;;;;;;7.35;100.00;100151.41;4988288;28;20071;-88
2023/01/08 05:52:19;;;;;;;4.13;1.75;;;;;;;7.33;100.00;100158.31;5007864;28;20034;-88
2023/01/08 05:54:44;;;;;;;6.35;1.70;;;;;;;7.35;100.00;100167.72;5007894;28;20023;-88
2023/01/08 05:57:10;;;;;;;5.25;1.80;;;;;;;7.31;100.00;100175.53;5016604;28;20034;-87
2023/01/08 05:59:35;;;;;;;5.72;1.85;;;;;;;7.25;100.00;100175.69;4993511;28;20107;-88
2023/01/08 06:02:00;;;;;;;5.07;1.55;;;;;;;7.14;100.00;100179.34;4994229;28;20574;-87
2023/01/08 06:04:26;;;;;;;7.38;1.77;;;;;;;7.05;100.00;100184.66;4975914;28;20559;-87
2023/01/08 06:06:51;;;;;;;4.25;1.85;;;;;;;6.95;100.00;100178.00;4994716;28;20465;-87
2023/01/08 06:09:16;;;;;;;6.90;1.55;;;;;;;6.86;100.00;100185.91;5013406;28;20025;-88
2023/01/08 06:11:42;;;;;;;5.22;1.52;;;;;;;6.74;100.00;100176.69;5013635;28;20080;-87
2023/01/08 06:14:07;;;;;;;5.53;1.50;;;;;;;6.63;100.00;100176.03;5006497;28;20018;-87
2023/01/08 06:16:32;;;;;;;5.03;1.42;;;;;;;6.58;100.00;100198.44;4974529;28;20085;-88
2023/01/08 06:18:58;;;;;;;8.05;1.58;;;;;;;6.48;100.00;100196.06;4982970;28;20040;-92
2023/01/08 06:21:23;;;;;;;4.93;1.27;;;;;;;6.42;100.00;100201.28;5007172;28;20076;-92
2023/01/08 06:23:48;;;;;;;5.78;1.25;;;;;;;6.36;100.00;100209.97;4994605;28;20114;-92
2023/01/08 06:26:14;;;;;;;5.95;1.50;;;;;;;6.27;100.00;100207.56;4976863;28;20034;-92
2023/01/08 06:28:39;;;;;;;6.00;1.35;;;;;;;6.18;100.00;100208.56;4977274;28;20502;-92
2023/01/08 06:31:04;;;;;;;7.88;1.35;;;;;;;6.12;100.00;100212.97;4993785;28;20109;-92
2023/01/08 06:33:31;;;;;;;4.28;1.40;;;;;;;6.06;100.00;100213.06;4977419;28;20088;-92
2023/01/08 06:36:04;;;;;;;5.97;1.70;;;;;;;5.96;100.00;100212.34;4993508;28;20038;-93
2023/01/08 06:38:30;;;;;;;6.57;1.45;;;;;;;5.91;100.00;100230.41;4994128;28;20101;-92
2023/01/08 06:40:56;;;;;;;4.15;1.40;;;;;;;5.84;100.00;100226.22;4990999;28;20030;-92
2023/01/08 06:43:21;;;;;;;5.63;1.77;;;;;;;5.82;100.00;100227.94;4980370;28;20033;-92
2023/01/08 06:45:53;;;;;;;7.30;1.30;;;;;;;5.78;100.00;100228.00;4983728;28;20052;-93
2023/01/08 06:48:19;;;;;;;6.60;1.80;;;;;;;5.76;100.00;100224.59;4995233;28;20120;-87
2023/01/08 06:50:44;;;;;;;4.47;1.50;;;;;;;5.68;100.00;100232.41;4983691;28;20116;-87
2023/01/08 06:53:09;;;;;;;5.10;1.80;;;;;;;5.63;100.00;100234.22;5011580;28;20078;-87
2023/01/08 06:55:37;;;;;;;5.30;1.50;;;;;;;5.57;100.00;100224.88;4994418;28;20442;-87
2023/01/08 06:58:05;;;;;;;4.60;1.45;;;;;;;5.55;100.00;100231.75;4975835;28;20026;-87
2023/01/08 07:00:30;;;;;;;5.43;1.30;;;;;;;5.53;100.00;100228.34;4993003;28;20407;-87
2023/01/08 07:02:55;;;;;;;9.50;1.70;;;;;;;5.49;100.00;100231.81;4973450;28;20483;-87
2023/01/08 07:05:21;;;;;;;7.72;1.40;;;;;;;5.47;100.00;100230.13;4986363;28;20226;-87
2023/01/08 07:07:46;;;;;;;7.03;1.30;;;;;;;5.45;100.00;100230.19;4988138;28;20482;-87
2023/01/08 07:10:12;;;;;;;7.13;1.45;;;;;;;5.44;100.00;100225.06;4992295;28;20076;-87
2023/01/08 07:12:37;;;;;;;6.47;1.48;;;;;;;5.44;100.00;100218.19;4990761;28;20030;-87
2023/01/08 07:15:03;;;;;;;5.03;1.40;;;;;;;5.44;100.00;100225.91;4986246;28;20040;-87
2023/01/08 07:17:30;;;;;;;5.13;1.60;;;;;;;5.46;100.00;100223.28;4986808;28;20029;-87
2023/01/08 07:19:56;;;;;;;10.95;1.80;;;;;;;5.49;100.00;100226.69;5012470;28;20037;-87
2023/01/08 07:22:23;;;;;;;8.10;1.38;;;;;;;5.47;100.00;100215.56;5007164;28;20026;-87
2023/01/08 07:24:48;;;;;;;5.88;1.40;;;;;;;5.50;100.00;100212.97;4992214;28;20022;-87
2023/01/08 07:27:14;;;;;;;7.18;1.50;;;;;;;5.49;100.00;100205.28;4991247;28;20077;-87
2023/01/08 07:29:39;;;;;;;5.53;1.10;;;;;;;5.50;100.00;100189.84;4973621;28;20081;-87
2023/01/08 07:32:04;;;;;;;9.55;1.30;;;;;;;5.55;100.00;100200.91;4985017;28;20041;-87
2023/01/08 07:34:30;;;;;;;6.85;1.80;;;;;;;5.59;100.00;100212.00;4992482;28;20491;-86
2023/01/08 07:36:55;;;;;;;8.18;1.60;;;;;;;5.61;100.00;100219.66;5000404;28;20083;-86
2023/01/08 07:39:20;;;;;;;10.77;1.45;;;;;;;5.62;100.00;100211.09;4978557;28;20032;-87
2023/01/08 07:41:46;;;;;;;7.60;1.45;;;;;;;5.62;100.00;100208.53;4992068;28;20037;-87
2023/01/08 07:44:11;;;;;;;8.23;1.50;;;;;;;5.59;100.00;100213.72;4992299;28;20025;-87
2023/01/08 07:46:37;;;;;;;9.23;1.35;;;;;;;5.61;100.00;100215.38;4975041;28;20034;-87
2023/01/08 07:49:04;;;;;;;7.80;1.20;;;;;;;5.61;100.00;100215.38;4988628;28;20030;-87
2023/01/08 07:51:30;;;;;;;4.53;1.40;;;;;;;5.57;100.00;100217.16;4992183;28;20034;-86
2023/01/08 07:53:55;;;;;;;6.45;1.20;;;;;;;5.50;100.00;100218.09;4991662;28;20037;-86
2023/01/08 07:56:21;;;;;;;10.07;1.40;;;;;;;5.44;100.00;100218.19;4973454;28;20018;-87
2023/01/08 07:58:46;;;;;;;7.85;1.42;;;;;;;5.41;100.00;100213.06;4996667;28;20026;-87
2023/01/08 08:01:12;;;;;;;9.30;1.05;;;;;;;5.38;100.00;100218.28;4979159;28;20036;-87
2023/01/08 08:03:38;;;;;;;7.20;1.15;;;;;;;5.36;100.00;100222.56;4970195;28;20054;-87
2023/01/08 08:06:04;;;;;;;6.70;1.17;;;;;;;5.37;100.00;100216.56;4985866;28;20069;-87
2023/01/08 08:08:29;;;;;;;4.80;0.80;;;;;;;5.38;100.00;100220.00;4987127;28;20022;-87
2023/01/08 08:10:55;;;;;;;6.15;0.90;;;;;;;5.38;100.00;100214.84;4986400;28;20022;-86
2023/01/08 08:13:20;;;;;;;7.35;1.00;;;;;;;5.40;100.00;100207.94;4991753;28;20022;-87
2023/01/08 08:15:45;;;;;;;5.88;0.88;;;;;;;5.43;100.00;100201.06;4989838;28;20029;-87
2023/01/08 08:18:11;;;;;;;5.68;1.17;;;;;;;5.48;100.00;100196.72;4989329;28;20026;-87
2023/01/08 08:20:37;;;;;;;7.85;1.38;;;;;;;5.51;100.00;100188.13;4990489;28;20041;-87
2023/01/08 08:23:14;;;;;;;4.63;0.90;;;;;;;5.61;100.00;100184.53;4993813;28;20030;-86
2023/01/08 08:25:41;;;;;;;8.02;1.27;;;;;;;5.77;100.00;100180.88;5003538;28;20034;-86
2023/01/08 08:28:09;;;;;;;5.82;0.90;;;;;;;5.84;100.00;100168.78;4992127;28;20030;-87
2023/01/08 08:30:35;;;;;;;7.65;2.40;;;;;;;6.00;100.00;100174.56;4976248;28;20040;-87
2023/01/08 08:33:03;;;;;;;7.35;1.20;;;;;;;6.09;100.00;100171.84;4981266;28;20022;-87
2023/01/08 08:35:30;;;;;;;7.50;1.25;;;;;;;6.16;100.00;100173.44;4980507;28;20037;-86
2023/01/08 08:37:56;;;;;;;6.97;1.25;;;;;;;6.29;100.00;100174.94;4987569;28;20430;-87
2023/01/08 08:40:22;;;;;;;12.30;2.00;;;;;;;6.44;100.00;100181.53;4991674;28;20117;-86
2023/01/08 08:42:47;;;;;;;8.10;1.20;;;;;;;6.53;100.00;100171.09;4995264;28;20438;-86
2023/01/08 08:45:12;;;;;;;8.98;1.25;;;;;;;6.60;100.00;100170.94;4992377;28;20088;-86
2023/01/08 08:47:38;;;;;;;10.05;1.40;;;;;;;6.64;100.00;100171.72;4988762;28;20022;-86
2023/01/08 08:50:05;;;;;;;5.82;1.17;;;;;;;6.73;100.00;100174.16;4988487;28;20022;-86
2023/01/08 08:52:32;;;;;;;7.43;1.27;;;;;;;6.79;100.00;100175.75;4990462;28;20084;-86
2023/01/08 08:54:58;;;;;;;8.18;1.25;;;;;;;6.76;100.00;100168.91;4995999;28;20037;-86
2023/01/08 08:57:25;;;;;;;8.75;1.40;;;;;;;6.77;100.00;100169.78;4989432;28;20026;-86
2023/01/08 08:59:50;;;;;;;5.72;1.20;;;;;;;6.69;100.00;100157.03;4990142;28;21021;-86
2023/01/08 09:02:15;;;;;;;5.57;1.50;;;;;;;6.66;100.00;100163.13;4995525;28;20372;-87
2023/01/08 09:04:41;;;;;;;7.93;1.80;;;;;;;6.58;100.00;100156.41;4997093;28;20150;-86
2023/01/08 09:07:06;;;;;;;8.27;1.45;;;;;;;6.53;100.00;100158.22;4969730;28;20387;-86
2023/01/08 09:09:31;;;;;;;3.78;1.20;;;;;;;6.51;100.00;100167.69;4980253;28;20034;-86
2023/01/08 09:11:57;;;;;;;3.65;1.23;;;;;;;6.47;100.00;100166.91;4997073;28;20026;-86
2023/01/08 09:14:22;;;;;;;8.27;1.25;;;;;;;6.40;100.00;100161.88;4979461;28;20383;-86
2023/01/08 09:16:48;;;;;;;7.13;1.17;;;;;;;6.35;100.00;100173.09;4994988;28;20022;-87
2023/01/08 09:19:13;;;;;;;7.80;1.40;;;;;;;6.27;100.00;100164.69;4985305;28;20080;-86
2023/01/08 09:21:38;;;;;;;7.07;1.50;;;;;;;6.21;100.00;100169.91;4993440;28;20046;-86
2023/01/08 09:24:04;;;;;;;8.88;1.20;;;;;;;6.13;100.00;100169.22;4998773;28;20482;-86
2023/01/08 09:26:30;;;;;;;6.65;1.70;;;;;;;6.08;100.00;100170.13;4975375;28;20089;-86
2023/01/08 09:28:57;;;;;;;10.45;1.75;;;;;;;6.05;100.00;100175.34;4993057;28;20030;-86
2023/01/08 09:31:23;;;;;;;5.22;1.60;;;;;;;5.97;100.00;100162.59;4993647;28;20030;-86
2023/01/08 09:33:48;;;;;;;11.05;1.63;;;;;;;5.93;100.00;100160.97;5007362;28;20079;-86
2023/01/08 09:36:14;;;;;;;8.07;1.48;;;;;;;5.89;100.00;100159.28;4994566;28;20030;-86
2023/01/08 09:38:39;;;;;;;6.75;1.35;;;;;;;5.89;100.00;100156.72;4994344;28;20027;-86
2023/01/08 09:41:15;;;;;;;9.18;1.70;;;;;;;5.85;100.00;100158.47;4993191;28;20038;-86
2023/01/08 09:43:43;;;;;;;7.97;1.60;;;;;;;5.85;100.00;100162.75;4993577;28;20109;-86
2023/01/08 09:46:11;;;;;;;9.40;1.70;;;;;;;5.84;100.00;100161.91;4991471;28;20116;-86
2023/01/08 09:48:39;;;;;;;7.65;1.90;;;;;;;5.85;100.00;100155.91;4993301;28;20085;-86
2023/01/08 09:51:11;;;;;;;8.57;1.65;;;;;;;5.82;100.00;100153.38;4989337;28;20113;-86
2023/01/08 09:53:37;;;;;;;6.13;1.42;;;;;;;5.82;100.00;100149.94;4992014;28;20034;-86
2023/01/08 09:56:09;;;;;;;7.93;1.70;;;;;;;5.86;100.00;100151.59;5000456;28;20033;-86
2023/01/08 09:58:37;;;;;;;5.10;1.45;;;;;;;5.88;100.00;100144.72;4991835;28;20058;-85
2023/01/08 10:01:03;;;;;;;7.18;1.80;;;;;;;5.90;100.00;100143.00;4992243;28;20038;-87
2023/01/08 10:03:38;;;;;;;7.70;1.83;;;;;;;5.89;100.00;100137.00;4975719;28;20054;-86
2023/01/08 10:06:09;;;;;;;8.85;1.67;;;;;;;5.90;100.00;100140.41;4990326;28;20029;-86
2023/01/08 10:08:35;;;;;;;14.50;2.10;;;;;;;5.91;100.00;100142.97;4999784;28;20027;-86
2023/01/08 10:11:01;;;;;;;7.78;1.85;;;;;;;5.93;100.00;100130.09;4990149;28;20072;-86
2023/01/08 10:13:26;;;;;;;10.55;1.85;;;;;;;5.94;100.00;100131.78;4981161;28;20075;-86
2023/01/08 10:15:52;;;;;;;7.97;1.80;;;;;;;5.93;100.00;100120.66;4975462;28;20022;-86
2023/01/08 10:18:21;;;;;;;4.28;1.63;;;;;;;5.97;100.00;100125.75;4993725;28;20081;-86
2023/01/08 10:20:46;;;;;;;9.73;1.98;;;;;;;5.99;100.00;100114.56;4992839;28;20463;-86
2023/01/08 10:23:14;;;;;;;7.53;1.77;;;;;;;6.10;100.00;100119.50;4980236;28;20495;-86
2023/01/08 10:25:48;;;;;;;6.10;1.80;;;;;;;6.18;100.00;100117.66;5004414;28;20117;-87
2023/01/08 10:28:24;;;;;;;7.65;2.28;;;;;;;6.26;100.00;100110.66;4986390;28;20510;-88
2023/01/08 10:31:15;;;;;;;7.25;2.00;;;;;;;6.32;100.00;100103.69;4976587;28;20030;-87
2023/01/08 10:33:46;;;;;;;9.80;2.08;;;;;;;6.35;100.00;100105.31;4993348;28;20045;-87
2023/01/08 10:36:15;;;;;;;5.60;2.05;;;;;;;6.38;100.00;100102.72;4992726;28;20475;-87
2023/01/08 10:38:49;;;;;;;7.97;2.00;;;;;;;6.42;100.00;100096.63;4967059;28;20056;-86
2023/01/08 10:41:16;;;;;;;9.07;1.98;;;;;;;6.53;100.00;100096.44;4994596;28;20499;-86
2023/01/08 10:43:54;;;;;;;8.35;1.60;;;;;;;6.68;100.00;100090.97;5002639;28;20038;-86
2023/01/08 10:46:23;;;;;;;7.90;1.98;;;;;;;6.76;100.00;100091.66;4990242;28;20030;-87
2023/01/08 10:48:52;;;;;;;5.22;1.50;;;;;;;6.79;100.00;100089.03;5001409;28;20089;-86
2023/01/08 10:51:22;;;;;;;6.38;1.50;;;;;;;6.77;100.00;100083.06;4993051;28;20093;-87
2023/01/08 10:53:48;;;;;;;5.35;1.50;;;;;;;6.78;100.00;100083.91;4975726;28;20483;-87
2023/01/08 10:56:20;;;;;;;4.40;1.50;;;;;;;6.83;100.00;100064.88;4990553;28;20041;-87
2023/01/08 10:58:45;;;;;;;8.02;1.45;;;;;;;6.88;100.00;100057.09;4998095;28;20023;-87
2023/01/08 11:01:21;;;;;;;7.70;1.58;;;;;;;7.01;100.00;100061.94;4974839;28;20037;-87
2023/01/08 11:03:52;;;;;;;6.72;1.60;;;;;;;7.17;100.00;100053.84;4975296;28;20042;-87
2023/01/08 11:06:24;;;;;;;3.70;1.30;;;;;;;7.36;100.00;100050.00;4983792;28;20022;-87
2023/01/08 11:09:20;;;;;;;2.75;1.10;;;;;;;7.53;100.00;100047.84;4993423;28;20062;-86
2023/01/08 11:11:47;;;;;;;6.45;1.30;;;;;;;7.64;100.00;100053.63;4988935;28;20108;-86
2023/01/08 11:14:25;;;;;;;2.78;1.08;;;;;;;7.66;100.00;100053.56;4984431;28;20028;-86
2023/01/08 11:16:52;;;;;;;6.10;1.00;;;;;;;7.60;100.00;100036.50;5003563;28;20122;-86
2023/01/08 11:19:28;;;;;;;4.78;1.00;;;;;;;7.59;100.00;100042.53;4985464;28;20022;-87
2023/01/08 11:21:56;;;;;;;2.10;0.90;;;;;;;7.56;100.00;100037.47;4993310;28;20033;-87
2023/01/08 11:24:27;;;;;;;3.15;0.95;;;;;;;7.58;100.00;100032.25;5002944;28;20487;-87
2023/01/08 11:27:13;;;;;;;1.42;0.90;;;;;;;7.58;100.00;100027.94;5009766;28;20033;-86